Time;durP1;ratioP1;P1;durP2;ratioP2;P2;SDS_P1;SDS_P2;PMS_P1;PMS_P2;Temp;Humidity;BMP_temperature;BMP_pressure;BME280_temperature;BME280_humidity;BME280_pressure;Samples;Min_cycle;Max_cycle;Signal;HPM_P1;HPM_P2
2023/04/22 00:01:37;;;;;;;6.35;3.30;;;11.10;99.90;;;10.62;100.00;96606.59;5018126;28;20065;-49
2023/04/22 00:04:03;;;;;;;6.63;3.50;;;11.00;99.90;;;10.59;100.00;96604.16;5029872;28;20381;-49
2023/04/22 00:06:28;;;;;;;6.43;3.78;;;11.00;99.90;;;10.54;100.00;96601.72;5028159;28;20052;-48
2023/04/22 00:08:54;;;;;;;5.45;3.35;;;11.00;99.90;;;10.57;100.00;96608.63;5027408;28;20032;-47
2023/04/22 00:11:20;;;;;;;5.63;3.83;;;11.00;99.90;;;10.53;100.00;96602.66;5025638;28;20033;-47
2023/04/22 00:13:46;;;;;;;5.78;3.60;;;11.00;99.90;;;10.58;100.00;96608.53;5028687;28;20029;-48
2023/04/22 00:16:11;;;;;;;7.90;3.60;;;11.00;99.90;;;10.58;100.00;96597.16;5026251;28;20029;-49
2023/04/22 00:18:37;;;;;;;6.18;3.88;;;11.00;99.90;;;10.57;100.00;96603.34;5030814;28;20144;-47
2023/04/22 00:21:06;;;;;;;7.20;3.40;;;11.00;99.90;;;10.58;100.00;96605.91;5029268;28;20041;-49
2023/04/22 00:23:32;;;;;;;6.07;3.95;;;11.00;99.90;;;10.56;100.00;96601.66;5027179;28;20037;-48
2023/04/22 00:25:58;;;;;;;5.43;3.78;;;11.00;99.90;;;10.54;100.00;96606.16;5031204;28;20052;-51
2023/04/22 00:28:24;;;;;;;7.00;4.22;;;11.00;99.90;;;10.53;100.00;96597.38;5031677;28;20020;-49
2023/04/22 00:30:49;;;;;;;6.55;4.00;;;10.90;99.90;;;10.56;100.00;96606.94;5024896;28;20518;-47
2023/04/22 00:33:15;;;;;;;5.85;3.78;;;11.00;99.90;;;10.59;100.00;96605.00;5034189;28;20095;-49
2023/04/22 00:35:41;;;;;;;5.57;3.65;;;11.00;99.90;;;10.59;100.00;96604.16;5030266;28;20623;-46
2023/04/22 00:38:07;;;;;;;6.70;3.63;;;11.00;99.90;;;10.60;100.00;96603.19;5029743;28;20140;-46
2023/04/22 00:40:32;;;;;;;3.78;2.90;;;11.00;99.90;;;10.62;100.00;96599.56;5031932;28;20087;-46
2023/04/22 00:42:59;;;;;;;5.93;3.58;;;11.10;99.90;;;10.62;100.00;96588.16;5028343;28;20041;-47
2023/04/22 00:45:25;;;;;;;5.70;3.50;;;11.10;99.90;;;10.66;100.00;96597.63;5031469;28;21161;-48
2023/04/22 00:47:51;;;;;;;5.40;3.58;;;11.10;99.90;;;10.61;100.00;96589.94;5026126;28;20286;-47
2023/04/22 00:54:00;;;;;;;5.82;3.80;;;11.10;99.90;;;10.54;100.00;96592.97;4994256;28;20455;-74
2023/04/22 00:56:27;;;;;;;5.10;3.35;;;11.00;99.90;;;10.57;100.00;96608.63;4992072;28;20087;-74
2023/04/22 00:58:54;;;;;;;4.90;3.13;;;11.00;99.90;;;10.57;100.00;96604.22;4984421;28;20101;-74
2023/04/22 01:01:20;;;;;;;7.68;3.10;;;11.00;99.90;;;10.55;100.00;96606.09;4982015;28;20048;-74
2023/04/22 01:03:48;;;;;;;4.10;3.08;;;11.00;99.90;;;10.58;100.00;96605.91;4976853;28;20033;-74
2023/04/22 01:06:17;;;;;;;5.32;2.97;;;11.00;99.90;;;10.58;100.00;96599.78;5002683;28;20175;-74
2023/04/22 01:08:43;;;;;;;5.07;3.10;;;11.00;99.90;;;10.43;100.00;96577.69;4960523;28;20033;-75
2023/04/22 01:11:09;;;;;;;5.47;3.00;;;11.00;99.90;;;10.58;100.00;96602.44;4988631;28;20118;-74
2023/04/22 01:13:37;;;;;;;4.05;2.30;;;11.00;99.90;;;10.59;100.00;96601.50;5000502;28;20033;-74
2023/04/22 01:16:07;;;;;;;4.18;2.67;;;11.00;99.90;;;10.51;100.00;96580.78;5017792;28;20413;-74
2023/04/22 01:18:34;;;;;;;3.15;2.28;;;11.00;99.90;;;10.63;100.00;96605.69;5011559;28;20029;-74
2023/04/22 01:21:01;;;;;;;3.72;2.25;;;11.10;99.90;;;10.55;100.00;96589.38;4973970;28;20030;-74
2023/04/22 01:23:27;;;;;;;3.28;2.47;;;11.10;99.90;;;10.61;100.00;96597.00;5005235;28;20036;-74
2023/04/22 01:25:53;;;;;;;4.32;2.53;;;11.00;99.90;;;10.54;100.00;96587.69;4985148;28;20065;-74
2023/04/22 01:28:19;;;;;;;4.63;2.90;;;11.00;99.90;;;10.63;100.00;96600.41;4986516;28;20021;-74
2023/04/22 01:30:45;;;;;;;4.95;3.20;;;11.10;99.90;;;10.69;100.00;96606.25;4968669;28;20041;-74
2023/04/22 01:33:11;;;;;;;3.55;2.88;;;11.10;99.90;;;10.68;100.00;96593.13;4980117;28;20026;-74
2023/04/22 01:35:40;;;;;;;3.58;2.55;;;11.10;99.90;;;10.71;100.00;96598.22;4987890;28;20106;-74
2023/04/22 01:38:08;;;;;;;3.92;2.83;;;11.10;99.90;;;10.67;100.00;96594.06;5002135;28;20508;-74
2023/04/22 01:40:34;;;;;;;4.70;3.15;;;11.10;99.90;;;10.58;100.00;96592.72;4985606;28;20474;-74
2023/04/22 01:43:01;;;;;;;5.30;3.03;;;11.10;99.90;;;10.50;100.00;96584.38;5000685;28;20033;-74
2023/04/22 01:45:27;;;;;;;4.40;3.15;;;11.00;99.90;;;10.42;100.00;96578.59;4977684;28;25390;-74
2023/04/22 01:47:54;;;;;;;3.63;2.75;;;10.90;99.90;;;10.40;100.00;96589.22;4974676;28;20025;-74
2023/04/22 01:50:20;;;;;;;4.20;2.72;;;10.90;99.90;;;10.34;100.00;96589.53;4993002;28;20033;-74
2023/04/22 01:52:47;;;;;;;4.35;2.75;;;10.80;99.90;;;10.36;100.00;96600.84;4979712;28;20116;-74
2023/04/22 01:55:13;;;;;;;4.20;2.90;;;10.80;99.90;;;10.13;100.00;96572.94;4988830;28;20044;-74
2023/04/22 01:57:39;;;;;;;4.43;3.08;;;10.80;99.90;;;10.24;100.00;96596.97;4996350;28;20524;-74
2023/04/22 02:00:07;;;;;;;3.90;2.95;;;10.70;99.90;;;10.15;100.00;96578.16;4982234;28;20044;-74
2023/04/22 02:02:33;;;;;;;4.88;3.05;;;10.70;99.90;;;10.09;100.00;96582.78;4971759;28;20485;-74
2023/04/22 02:04:58;;;;;;;4.10;3.20;;;10.60;99.90;;;10.10;100.00;96586.25;4986051;28;20040;-74
2023/04/22 02:07:24;;;;;;;4.55;3.30;;;10.60;99.90;;;10.05;100.00;96586.50;4973669;28;20034;-74
2023/04/22 02:09:51;;;;;;;4.45;3.20;;;10.50;99.90;;;10.01;100.00;96587.53;4970312;28;20037;-74
2023/04/22 02:12:16;;;;;;;4.70;2.90;;;10.50;99.90;;;10.05;100.00;96596.16;5007023;28;20057;-74
2023/04/22 02:14:42;;;;;;;3.97;3.33;;;10.50;99.90;;;10.00;100.00;96596.38;4970037;28;20187;-74
2023/04/22 02:17:08;;;;;;;5.10;3.03;;;10.50;99.90;;;9.94;100.00;96591.41;4971714;28;20038;-74
2023/04/22 02:19:34;;;;;;;4.45;3.30;;;10.50;99.90;;;10.00;100.00;96611.34;5008291;28;20252;-74
2023/04/22 02:22:00;;;;;;;5.57;3.60;;;10.40;99.90;;;9.99;100.00;96610.47;4985118;28;20402;-74
2023/04/22 02:24:26;;;;;;;3.25;2.75;;;10.40;99.90;;;9.92;100.00;96609.06;5005407;28;20049;-74
2023/04/22 02:26:52;;;;;;;3.85;3.08;;;10.40;99.90;;;9.91;100.00;96610.00;4984335;28;20040;-74
2023/04/22 02:29:17;;;;;;;4.22;3.22;;;10.40;99.90;;;9.92;100.00;96617.84;4971590;28;20033;-74
2023/04/22 02:31:43;;;;;;;4.53;3.10;;;10.40;99.90;;;9.85;100.00;96610.25;5001756;28;20029;-75
2023/04/22 02:34:09;;;;;;;4.60;3.40;;;10.30;99.90;;;9.89;100.00;96615.34;5003944;28;20044;-74
2023/04/22 02:36:34;;;;;;;4.53;3.42;;;10.30;99.90;;;9.87;100.00;96614.56;5003461;28;20029;-74
2023/04/22 02:39:02;;;;;;;4.70;3.35;;;10.30;99.90;;;9.74;100.00;96601.13;5006264;28;20042;-74
2023/04/22 02:41:28;;;;;;;4.78;3.60;;;10.30;99.90;;;9.82;100.00;96619.19;4967376;28;20037;-74
2023/04/22 02:43:53;;;;;;;5.13;3.83;;;10.30;99.90;;;9.73;100.00;96601.19;4983390;28;20390;-74
2023/04/22 02:46:19;;;;;;;5.63;3.92;;;10.30;99.90;;;9.80;100.00;96620.16;4988743;28;20041;-74
2023/04/22 02:48:45;;;;;;;6.65;4.18;;;10.20;99.90;;;9.78;100.00;96622.88;4988731;28;20057;-74
2023/04/22 02:51:11;;;;;;;5.13;3.75;;;10.30;99.90;;;9.69;100.00;96608.38;5003648;28;20482;-74
2023/04/22 02:53:36;;;;;;;4.88;3.30;;;10.20;99.90;;;9.68;100.00;96611.06;5005576;28;20025;-74
2023/04/22 02:56:03;;;;;;;5.00;3.60;;;10.20;99.90;;;9.70;100.00;96614.47;4990338;28;20924;-74
2023/04/22 02:58:28;;;;;;;5.13;3.58;;;10.20;99.90;;;9.75;100.00;96620.38;4967793;28;20030;-74
2023/04/22 03:00:55;;;;;;;5.50;3.40;;;10.20;99.90;;;9.62;100.00;96606.06;4975015;28;20510;-74
2023/04/22 03:03:21;;;;;;;6.55;3.58;;;10.20;99.90;;;9.53;100.00;96596.84;4971379;28;20033;-74
2023/04/22 03:05:47;;;;;;;4.55;3.28;;;10.10;99.90;;;9.60;100.00;96610.53;4976812;28;20433;-74
2023/04/22 03:08:13;;;;;;;4.70;3.40;;;10.10;99.90;;;9.51;100.00;96593.38;5017073;28;20036;-74
2023/04/22 03:10:38;;;;;;;5.75;3.90;;;10.00;99.90;;;9.55;100.00;96608.97;4996720;28;20048;-74
2023/04/22 03:13:04;;;;;;;5.82;3.92;;;10.00;99.90;;;9.42;100.00;96594.69;4981547;28;20409;-74
2023/04/22 03:15:30;;;;;;;5.80;3.65;;;10.00;99.90;;;9.41;100.00;96597.38;4978364;28;20326;-74
2023/04/22 03:17:55;;;;;;;4.32;3.55;;;9.90;99.90;;;9.30;100.00;96585.56;4979533;28;20344;-74
2023/04/22 03:20:21;;;;;;;5.85;3.63;;;9.90;99.90;;;9.34;100.00;96608.16;4985538;28;20107;-74
2023/04/22 03:22:47;;;;;;;4.72;3.28;;;9.80;99.90;;;9.32;100.00;96607.38;4987371;28;20033;-74
2023/04/22 03:25:13;;;;;;;5.97;3.70;;;9.80;99.90;;;9.25;100.00;96600.69;4992918;28;20498;-74
2023/04/22 03:27:38;;;;;;;5.15;3.42;;;9.70;99.90;;;9.19;100.00;96608.88;5002426;28;20033;-74
2023/04/22 03:30:05;;;;;;;6.80;3.80;;;9.70;99.90;;;9.14;100.00;96603.78;4985456;28;21024;-74
2023/04/22 03:32:31;;;;;;;6.03;3.80;;;9.70;99.90;;;9.16;100.00;96611.63;4986243;28;20076;-74
2023/04/22 03:34:56;;;;;;;6.82;4.18;;;9.60;99.90;;;9.10;100.00;96607.50;4990886;28;20120;-74
2023/04/22 03:37:22;;;;;;;6.07;4.18;;;9.60;99.90;;;9.05;100.00;96605.97;4982721;28;20174;-74
2023/04/22 03:39:48;;;;;;;6.30;3.83;;;9.50;99.90;;;8.97;100.00;96595.78;4988892;28;20029;-74
2023/04/22 03:42:14;;;;;;;5.88;3.63;;;9.50;99.90;;;8.94;100.00;96601.19;4991223;28;20495;-74
2023/04/22 03:44:40;;;;;;;5.35;3.67;;;9.50;99.90;;;8.95;100.00;96614.28;5002824;28;20163;-74
2023/04/22 03:47:06;;;;;;;5.50;3.95;;;9.50;99.90;;;8.94;100.00;96620.44;4980513;28;20623;-74
2023/04/22 03:49:31;;;;;;;6.88;3.72;;;9.40;99.90;;;8.91;100.00;96615.31;5005600;28;20062;-74
2023/04/22 03:51:57;;;;;;;5.05;3.95;;;9.40;99.90;;;8.93;100.00;96623.13;5005621;28;20040;-74
2023/04/22 03:54:24;;;;;;;6.15;4.38;;;9.40;99.90;;;8.91;100.00;96630.25;4973151;28;20449;-74
2023/04/22 03:56:50;;;;;;;5.30;4.10;;;9.40;99.90;;;8.86;100.00;96627.78;4980626;28;20033;-74
2023/04/22 03:59:17;;;;;;;5.30;4.30;;;9.40;99.90;;;8.74;100.00;96609.91;5003939;28;20239;-74
2023/04/22 04:01:45;;;;;;;5.53;4.30;;;9.30;99.90;;;8.84;100.00;96629.63;4980032;28;20041;-74
2023/04/22 04:04:10;;;;;;;6.43;4.35;;;9.30;99.90;;;8.78;100.00;96630.75;4984096;28;20087;-74
2023/04/22 04:06:36;;;;;;;5.97;4.25;;;9.30;99.90;;;8.76;100.00;96621.22;4987713;28;20052;-74
2023/04/22 04:09:02;;;;;;;6.97;4.53;;;9.30;99.90;;;8.83;100.00;96627.06;5013433;23;20040;-38
2023/04/22 04:11:29;;;;;;;8.98;4.80;;;9.30;99.90;;;8.80;100.00;96625.44;5031028;28;20083;-37
2023/04/22 04:13:55;;;;;;;7.70;4.70;;;9.30;99.90;;;8.81;100.00;96615.75;5032029;28;20025;-37
2023/04/22 04:16:20;;;;;;;5.50;4.25;;;9.30;99.90;;;8.80;100.00;96617.53;5032371;28;20044;-38
2023/04/22 04:18:49;;;;;;;6.22;4.45;;;9.30;99.90;;;8.70;100.00;96597.81;5030344;28;20033;-38
2023/04/22 04:21:16;;;;;;;6.07;4.45;;;9.30;99.90;;;8.82;100.00;96610.44;5032018;28;20048;-38
2023/04/22 04:23:41;;;;;;;6.18;4.10;;;9.30;99.90;;;8.90;100.00;96608.34;5046668;23;20021;-37
2023/04/22 04:26:07;;;;;;;4.47;3.72;;;9.30;99.90;;;8.88;100.00;96604.94;5029472;28;20583;-35
2023/04/22 04:28:34;;;;;;;5.10;4.30;;;9.40;99.90;;;8.87;100.00;96608.47;5029496;28;20969;-35
2023/04/22 04:31:01;;;;;;;5.15;3.70;;;9.40;99.90;;;8.88;100.00;96610.19;5030613;28;20033;-38
2023/04/22 04:33:28;;;;;;;5.63;4.18;;;9.40;99.90;;;8.90;100.00;96613.63;5037682;28;20013;-36
2023/04/22 04:35:54;;;;;;;6.60;4.57;;;9.40;99.90;;;8.91;100.00;96615.31;5031565;28;21230;-35
2023/04/22 04:38:20;;;;;;;5.88;4.40;;;9.40;99.90;;;8.91;100.00;96610.03;5035942;28;20052;-35
2023/04/22 04:40:48;;;;;;;6.07;4.20;;;9.40;99.90;;;8.90;100.00;96603.09;5030499;28;20032;-35
2023/04/22 04:43:14;;;;;;;5.10;4.50;;;9.40;99.90;;;8.92;100.00;96596.00;5037148;28;20434;-35
2023/04/22 04:45:45;;;;;;;5.40;4.47;;;9.40;99.90;;;8.95;100.00;96606.38;5027818;28;20058;-36
2023/04/22 04:48:12;;;;;;;6.57;4.78;;;9.50;99.90;;;8.98;100.00;96600.13;5030059;28;20494;-36
2023/04/22 04:50:38;;;;;;;6.65;4.97;;;9.50;99.90;;;9.04;100.00;96599.00;5031387;28;20029;-35
2023/04/22 04:53:03;;;;;;;6.63;4.95;;;9.60;99.90;;;9.09;100.00;96599.66;5034423;28;20025;-35
2023/04/22 04:55:29;;;;;;;5.82;4.35;;;9.60;99.90;;;9.14;100.00;96598.53;5031378;28;20028;-35
2023/04/22 04:57:55;;;;;;;6.15;4.43;;;9.60;99.90;;;9.16;100.00;96598.47;5028770;28;20041;-36
2023/04/22 05:00:20;;;;;;;5.45;3.65;;;9.70;99.90;;;9.22;100.00;96606.06;5032519;28;20070;-36
2023/04/22 05:02:46;;;;;;;4.30;3.83;;;9.70;99.90;;;9.24;100.00;96596.38;5033510;28;20547;-36
2023/04/22 05:05:12;;;;;;;5.97;4.40;;;9.70;99.90;;;9.28;100.00;96608.44;5034914;28;20037;-36
2023/04/22 05:07:37;;;;;;;6.57;4.15;;;9.80;99.90;;;9.29;100.00;96602.25;5037489;28;20627;-35
2023/04/22 05:10:03;;;;;;;5.20;3.72;;;9.80;99.90;;;9.31;100.00;96602.19;5034247;28;20411;-36
2023/04/22 05:12:29;;;;;;;4.38;3.90;;;9.80;99.90;;;9.33;100.00;96601.22;5037548;28;20037;-35
2023/04/22 05:14:55;;;;;;;5.20;3.50;;;9.80;99.90;;;9.36;100.00;96601.06;5033431;28;20451;-36
2023/04/22 05:17:20;;;;;;;5.35;3.95;;;9.90;99.90;;;9.42;100.00;96599.06;5035329;28;20158;-36
2023/04/22 05:19:46;;;;;;;4.30;3.65;;;9.90;99.90;;;9.45;100.00;96599.78;5036131;28;20037;-36
2023/04/22 05:22:12;;;;;;;4.88;3.78;;;9.90;99.90;;;9.49;100.00;96605.78;5035958;28;20029;-35
2023/04/22 05:24:38;;;;;;;5.10;3.60;;;9.90;99.90;;;9.50;100.00;96599.59;5033301;28;20376;-35
2023/04/22 05:27:03;;;;;;;4.80;3.78;;;10.00;99.90;;;9.53;100.00;96602.94;5032828;28;20469;-35
2023/04/22 05:29:30;;;;;;;6.53;4.22;;;10.00;99.90;;;9.54;100.00;96602.00;5018108;28;20107;-35
2023/04/22 05:31:56;;;;;;;5.65;4.15;;;10.00;99.90;;;9.58;100.00;96607.97;5029020;28;20124;-35
2023/04/22 05:34:22;;;;;;;6.35;4.35;;;10.00;99.90;;;9.58;100.00;96610.59;5032974;28;20033;-35
2023/04/22 05:36:47;;;;;;;6.47;3.95;;;10.00;99.90;;;9.59;100.00;96614.97;5030828;28;20068;-35
2023/04/22 05:39:13;;;;;;;4.60;3.53;;;10.00;99.90;;;9.54;100.00;96607.25;5033342;28;20029;-36
2023/04/22 05:41:39;;;;;;;5.75;4.20;;;10.00;99.90;;;9.60;100.00;96616.69;5031946;28;20029;-37
2023/04/22 05:44:04;;;;;;;5.38;3.80;;;10.00;99.90;;;9.62;100.00;96617.47;5031377;28;20052;-36
2023/04/22 05:46:30;;;;;;;5.00;4.03;;;10.00;99.90;;;9.67;100.00;96619.88;5032915;28;20512;-36
2023/04/22 05:48:56;;;;;;;4.70;3.65;;;10.10;99.90;;;9.71;100.00;96622.31;5032070;28;20029;-36
2023/04/22 05:51:22;;;;;;;4.47;3.70;;;10.10;99.90;;;9.80;100.00;96620.16;5030850;28;20029;-36
2023/04/22 05:53:49;;;;;;;5.40;3.72;;;10.20;99.90;;;9.86;100.00;96609.34;5035361;28;20045;-36
2023/04/22 05:56:14;;;;;;;5.72;3.65;;;10.30;99.90;;;10.03;100.00;96622.59;5034291;28;20090;-36
2023/04/22 05:58:40;;;;;;;6.55;3.85;;;10.50;99.90;;;10.19;100.00;96621.84;5038949;28;20536;-34
2023/04/22 06:01:06;;;;;;;5.18;3.67;;;10.60;99.90;;;10.36;100.00;96624.56;5033033;28;20035;-34
2023/04/22 06:03:32;;;;;;;4.93;4.20;;;10.70;99.90;;;10.49;100.00;96617.75;5035472;28;20033;-34
2023/04/22 06:05:59;;;;;;;4.75;3.80;;;10.90;99.90;;;10.73;100.00;96630.69;5029914;28;20130;-34
2023/04/22 06:08:25;;;;;;;5.30;4.00;;;11.10;99.90;;;10.91;100.00;96623.63;5035171;28;20119;-34
2023/04/22 06:10:51;;;;;;;4.28;3.33;;;11.30;99.90;;;11.09;100.00;96621.84;5029891;28;20488;-34
2023/04/22 06:13:17;;;;;;;5.93;3.70;;;11.50;99.90;;;11.28;100.00;96625.19;5036661;28;20044;-34
2023/04/22 06:15:42;;;;;;;3.92;3.15;;;11.70;99.90;;;11.46;100.00;96631.31;5032452;28;20037;-34
2023/04/22 06:18:08;;;;;;;5.00;3.10;;;11.90;99.90;;;11.71;100.00;96631.81;5033291;28;20063;-36
2023/04/22 06:20:35;;;;;;;4.80;3.22;;;12.10;99.90;;;11.87;100.00;96632.69;5030580;28;20025;-36
2023/04/22 06:23:04;;;;;;;4.93;2.80;;;12.30;99.90;;;12.08;100.00;96635.97;5021467;28;20535;-36
2023/04/22 06:25:31;;;;;;;3.83;2.85;;;12.50;99.90;;;12.23;100.00;96634.25;5033466;28;20025;-37
2023/04/22 06:27:58;;;;;;;3.92;3.28;;;12.60;99.90;;;12.38;100.00;96635.19;5031166;28;20140;-36
2023/04/22 06:30:26;;;;;;;4.75;3.45;;;12.80;99.90;;;12.47;100.00;96632.03;5031165;28;20435;-36
2023/04/22 06:32:53;;;;;;;4.65;3.50;;;12.90;99.90;;;12.66;100.00;96638.91;5032004;28;20028;-37
2023/04/22 06:35:20;;;;;;;3.80;3.20;;;13.00;99.90;;;12.81;100.00;96638.00;5033418;28;20062;-36
2023/04/22 06:37:46;;;;;;;4.70;3.40;;;13.20;99.90;;;12.99;100.00;96644.03;5034412;28;20039;-37
2023/04/22 06:40:14;;;;;;;8.55;3.67;;;13.30;99.90;;;13.11;100.00;96642.47;5031103;28;20437;-37
2023/04/22 06:42:39;;;;;;;6.30;3.33;;;13.50;99.90;;;13.20;100.00;96641.91;5028110;28;20459;-36
2023/04/22 06:45:08;;;;;;;5.38;3.60;;;13.50;99.90;;;13.25;100.00;96642.50;5033499;28;20059;-37
2023/04/22 06:47:34;;;;;;;4.07;3.28;;;13.60;99.90;;;13.30;100.00;96648.38;5033324;28;20577;-37
2023/04/22 06:50:01;;;;;;;5.18;3.17;;;13.60;99.90;;;13.40;100.00;96639.91;5033039;28;20044;-37
2023/04/22 06:52:26;;;;;;;4.10;3.00;;;13.70;99.90;;;13.45;100.00;96641.31;5029499;28;20040;-37
2023/04/22 06:54:52;;;;;;;5.65;3.85;;;13.80;99.90;;;13.55;100.00;96644.28;5029291;28;20025;-37
2023/04/22 06:57:18;;;;;;;3.45;2.83;;;13.90;99.90;;;13.67;100.00;96650.63;5029119;28;20035;-36
2023/04/22 06:59:44;;;;;;;3.08;2.65;;;14.00;99.90;;;13.77;100.00;96648.28;5028206;28;20044;-36
2023/04/22 07:02:10;;;;;;;3.70;3.13;;;14.10;99.90;;;13.86;100.00;96645.03;5023814;28;20060;-37
2023/04/22 07:04:36;;;;;;;6.93;3.30;;;14.20;99.90;;;13.96;100.00;96645.31;5021815;28;20048;-37
2023/04/22 07:07:02;;;;;;;3.60;2.70;;;14.20;99.90;;;14.05;100.00;96644.72;5027761;28;20025;-37
2023/04/22 07:09:28;;;;;;;4.10;3.22;;;14.40;99.90;;;14.14;100.00;96638.88;5030085;28;20070;-37
2023/04/22 07:11:53;;;;;;;4.10;2.80;;;14.50;99.90;;;14.27;100.00;96628.31;5029131;28;20655;-37
2023/04/22 07:14:19;;;;;;;5.30;3.40;;;14.70;99.90;;;14.46;100.00;96646.53;5025208;28;20060;-37
2023/04/22 07:16:45;;;;;;;4.75;3.17;;;14.80;99.90;;;14.57;100.00;96641.41;5023766;28;20082;-36
2023/04/22 07:19:11;;;;;;;3.50;3.10;;;14.90;99.90;;;14.68;100.00;96641.59;5024398;28;20064;-37
2023/04/22 07:21:37;;;;;;;5.63;3.55;;;15.00;99.90;;;14.78;100.00;96633.84;5033516;28;20032;-37
2023/04/22 07:24:03;;;;;;;4.30;2.83;;;15.10;99.90;;;14.86;100.00;96630.72;5028853;28;20413;-37
2023/04/22 07:26:30;;;;;;;5.97;3.70;;;15.20;99.90;;;14.85;100.00;96634.31;5032517;28;20033;-37
2023/04/22 07:28:56;;;;;;;4.95;3.60;;;15.20;99.90;;;14.92;100.00;96626.81;5033903;28;20135;-37
2023/04/22 07:31:22;;;;;;;6.57;3.90;;;15.30;99.90;;;14.94;97.26;96633.69;5028126;28;20017;-37
2023/04/22 07:33:48;;;;;;;4.07;2.80;;;15.30;99.90;;;15.06;99.35;96627.56;5032576;28;20370;-37
2023/04/22 07:36:13;;;;;;;5.32;2.92;;;15.40;99.90;;;15.21;97.39;96617.72;5030661;28;20415;-37
2023/04/22 07:38:39;;;;;;;3.95;3.50;;;15.60;99.90;;;15.41;96.13;96618.16;5033882;28;20037;-37
2023/04/22 07:41:05;;;;;;;3.22;2.92;;;15.80;99.90;;;15.56;93.94;96610.91;5032733;28;20408;-37
2023/04/22 07:43:30;;;;;;;4.43;3.38;;;16.00;99.90;;;15.68;89.35;96612.72;5030661;28;20493;-37
2023/04/22 07:45:56;;;;;;;4.75;3.45;;;16.10;99.90;;;15.79;89.50;96620.84;5028575;28;20440;-37
2023/04/22 07:48:22;;;;;;;5.22;3.35;;;16.20;99.90;;;15.85;86.36;96622.22;5034176;28;20602;-37
2023/04/22 07:50:48;;;;;;;4.13;3.03;;;16.40;99.90;;;16.18;88.49;96629.59;5031433;28;20502;-37
2023/04/22 07:53:14;;;;;;;4.18;3.10;;;16.50;99.90;;;16.34;84.78;96636.47;5014805;28;20028;-37
2023/04/22 07:55:40;;;;;;;4.75;3.13;;;16.70;99.90;;;16.43;83.18;96641.13;5030167;28;20145;-37
2023/04/22 07:58:06;;;;;;;4.47;2.90;;;16.80;99.90;;;16.56;84.08;96644.59;5037490;28;20033;-37
2023/04/22 08:00:34;;;;;;;4.80;3.05;;;16.90;99.90;;;16.70;81.57;96648.91;5034214;28;20033;-37
2023/04/22 08:03:01;;;;;;;3.08;2.58;;;17.10;99.90;;;16.88;81.91;96646.72;5010296;28;20446;-38
2023/04/22 08:05:26;;;;;;;5.55;3.47;;;17.20;99.90;;;16.96;78.73;96649.66;5028141;28;20490;-37
2023/04/22 08:07:52;;;;;;;4.00;2.97;;;17.30;99.90;;;17.09;80.65;96649.59;5034200;28;20033;-37
2023/04/22 08:10:18;;;;;;;4.80;3.20;;;17.40;99.90;;;17.15;78.11;96638.47;5031730;28;20083;-37
2023/04/22 08:12:44;;;;;;;3.83;2.95;;;17.50;99.90;;;17.29;76.85;96648.09;5035955;28;20029;-37
2023/04/22 08:15:10;;;;;;;4.13;2.70;;;17.60;99.90;;;17.28;76.57;96642.88;5035158;28;20376;-36
2023/04/22 08:17:36;;;;;;;3.45;2.47;;;17.70;99.90;;;17.25;75.82;96649.28;5024884;28;20533;-36
2023/04/22 08:20:03;;;;;;;6.20;2.30;;;17.60;99.90;;;17.24;75.03;96655.56;5019943;28;20029;-36
2023/04/22 08:22:29;;;;;;;3.47;2.40;;;17.60;99.90;;;17.18;75.90;96648.06;5028455;28;20052;-36
2023/04/22 08:24:54;;;;;;;2.67;2.20;;;17.40;99.90;;;17.05;75.85;96645.47;5033376;28;20033;-36
2023/04/22 08:27:21;;;;;;;5.95;2.00;;;17.30;99.90;;;16.94;76.61;96645.41;5028794;28;20385;-36
2023/04/22 08:29:46;;;;;;;3.88;2.17;;;17.20;99.90;;;16.82;78.70;96647.16;5009227;28;20427;-36
2023/04/22 08:32:12;;;;;;;2.58;2.03;;;17.10;99.90;;;16.78;79.72;96646.53;5020323;28;20033;-36
2023/04/22 08:34:38;;;;;;;3.47;1.80;;;17.10;99.90;;;16.84;77.56;96652.41;5024661;28;20022;-36
2023/04/22 08:37:03;;;;;;;2.50;2.10;;;17.00;99.90;;;16.83;80.29;96638.22;5025270;28;20029;-37
2023/04/22 08:39:29;;;;;;;3.10;2.03;;;17.10;99.90;;;16.87;77.43;96641.50;5033379;28;20377;-37
2023/04/22 08:41:57;;;;;;;2.97;1.85;;;17.20;99.90;;;16.97;76.75;96638.03;5033306;28;20508;-37
2023/04/22 08:44:23;;;;;;;2.55;1.85;;;17.20;99.90;;;17.06;75.84;96639.16;5031147;28;20371;-37
2023/04/22 08:46:50;;;;;;;4.45;2.03;;;17.30;99.90;;;17.12;74.77;96636.06;5035013;28;20539;-37
2023/04/22 08:49:16;;;;;;;2.15;1.75;;;17.40;99.90;;;17.13;74.35;96644.88;5024955;28;20092;-37
2023/04/22 08:51:43;;;;;;;2.30;1.85;;;17.40;99.90;;;17.24;73.02;96639.59;5027269;28;20438;-37
2023/04/22 08:54:10;;;;;;;2.25;1.77;;;17.50;99.90;;;17.28;71.87;96634.88;5029043;28;20040;-37
2023/04/22 08:56:40;;;;;;;3.75;1.80;;;17.60;99.90;;;17.34;69.26;96637.94;5028624;28;20054;-37
2023/04/22 08:59:09;;;;;;;4.22;2.20;;;17.50;99.90;;;17.40;71.05;96639.28;5025098;28;22200;-37
2023/04/22 09:01:35;;;;;;;2.45;1.77;;;17.60;99.90;;;17.48;69.86;96631.56;5032284;28;20040;-37
2023/04/22 09:04:01;;;;;;;3.65;1.95;;;17.70;99.90;;;17.58;68.44;96630.84;5012610;28;20813;-36
2023/04/22 09:06:28;;;;;;;2.67;1.88;;;17.80;99.90;;;17.62;66.04;96627.81;5021693;28;20033;-37
2023/04/22 09:08:54;;;;;;;2.15;1.73;;;17.90;99.90;;;17.74;68.48;96613.50;5021191;28;20021;-37
2023/04/22 09:11:19;;;;;;;2.33;1.60;;;18.10;99.90;;;17.97;65.91;96618.88;5040597;28;20025;-37
2023/04/22 09:13:46;;;;;;;3.67;1.90;;;18.30;99.90;;;18.14;62.64;96617.53;5039822;28;20035;-37
2023/04/22 09:16:12;;;;;;;3.08;1.80;;;18.40;99.90;;;18.35;60.34;96620.31;5040502;28;20029;-37
2023/04/22 09:18:46;;;;;;;2.97;2.00;;;18.60;99.90;;;18.51;61.14;96612.75;5043207;28;20075;-37
2023/04/22 09:21:12;;;;;;;1.65;1.55;;;18.90;99.90;;;18.83;60.30;96627.97;5041298;28;20032;-37
2023/04/22 09:23:51;;;;;;;3.83;1.88;;;19.10;99.90;;;19.10;56.62;96621.31;5041361;28;20075;-37
2023/04/22 09:26:25;;;;;;;3.30;1.75;;;19.40;99.90;;;19.25;56.41;96622.69;5040369;28;20706;-36
2023/04/22 09:28:58;;;;;;;2.30;1.70;;;19.50;99.90;;;19.38;56.15;96614.50;5037869;28;20056;-35
2023/04/22 09:31:24;;;;;;;2.45;1.80;;;19.70;99.90;;;19.43;54.36;96604.28;5036625;28;20029;-35
2023/04/22 09:33:57;;;;;;;2.47;1.63;;;19.80;99.90;;;19.55;53.93;96626.41;5039575;28;20156;-35
2023/04/22 09:36:26;;;;;;;2.38;1.40;;;19.90;99.90;;;19.63;56.12;96625.75;5038344;28;20438;-35
2023/04/22 09:39:08;;;;;;;2.60;1.63;;;20.00;99.90;;;19.80;52.87;96621.66;5035693;28;20044;-35
2023/04/22 09:41:39;;;;;;;2.88;1.50;;;20.10;99.90;;;19.90;52.16;96619.91;5036493;28;20553;-35
2023/04/22 09:44:15;;;;;;;3.13;1.58;;;20.20;99.90;;;19.95;50.89;96625.66;5039056;28;20036;-35
2023/04/22 09:46:43;;;;;;;2.00;1.42;;;20.20;99.90;;;19.88;50.25;96624.50;5032574;28;20424;-35
2023/04/22 09:49:08;;;;;;;2.58;1.48;;;20.10;99.90;;;19.83;51.00;96616.91;5028303;28;20029;-35
2023/04/22 09:51:39;;;;;;;2.10;1.40;;;20.10;99.90;;;19.81;51.19;96613.50;5034938;28;20066;-35
2023/04/22 09:54:09;;;;;;;2.08;1.38;;;20.00;99.90;;;19.75;50.94;96606.00;5029925;28;20043;-35
2023/04/22 09:56:47;;;;;;;2.22;1.77;;;20.10;99.90;;;19.91;50.97;96615.38;5032046;28;20571;-35
2023/04/22 09:59:19;;;;;;;2.45;1.55;;;20.20;99.90;;;20.01;50.44;96606.41;5028757;28;20051;-35
2023/04/22 10:01:45;;;;;;;;;;;20.30;99.70;;;20.15;50.23;96610.56;5032856;28;20409;-35
2023/04/22 10:04:13;;;;;;;1.98;1.38;;;20.50;99.70;;;20.32;50.10;96601.03;5033367;28;19924;-35
2023/04/22 10:06:39;;;;;;;2.67;1.60;;;20.60;99.30;;;20.47;48.22;96600.63;5035802;28;20037;-35
2023/04/22 10:09:06;;;;;;;1.77;1.38;;;20.70;98.30;;;20.39;50.72;96595.97;5031768;28;20070;-36
2023/04/22 10:11:33;;;;;;;1.83;1.30;;;20.70;98.50;;;20.40;50.07;96598.53;5035062;28;20048;-36
2023/04/22 10:13:59;;;;;;;4.07;1.40;;;20.70;98.90;;;20.43;48.04;96592.03;5029725;28;20104;-36
2023/04/22 10:16:30;;;;;;;2.38;1.40;;;20.70;97.60;;;20.47;47.81;96597.94;5037510;28;20040;-36
2023/04/22 10:18:59;;;;;;;3.75;1.60;;;20.70;97.20;;;20.45;46.25;96599.94;5032026;28;20167;-36